sensor_id;sensor_type;location;lat;lon;timestamp;pressure;altitude;pressure_sealevel;temperature;humidity
13015;BME280;6573;57.696;11.950;2023-04-26T00:00:00;100296.28;;;10.88;100.00
13015;BME280;6573;57.696;11.950;2023-04-26T00:02:34;100299.25;;;10.60;100.00
13015;BME280;6573;57.696;11.950;2023-04-26T00:05:03;100288.47;;;10.84;100.00
13015;BME280;6573;57.696;11.950;2023-04-26T00:07:33;100291.94;;;10.86;100.00
13015;BME280;6573;57.696;11.950;2023-04-26T00:10:02;100274.38;;;10.88;100.00
13015;BME280;6573;57.696;11.950;2023-04-26T00:12:31;100297.09;;;10.92;100.00
13015;BME280;6573;57.696;11.950;2023-04-26T00:15:01;100297.03;;;10.98;100.00
13015;BME280;6573;57.696;11.950;2023-04-26T00:17:30;100298.72;;;11.02;100.00
13015;BME280;6573;57.696;11.950;2023-04-26T00:19:58;100307.63;;;10.92;100.00
13015;BME280;6573;57.696;11.950;2023-04-26T00:22:27;100303.19;;;10.98;100.00
13015;BME280;6573;57.696;11.950;2023-04-26T00:24:55;100296.91;;;11.07;100.00
13015;BME280;6573;57.696;11.950;2023-04-26T00:27:25;100296.88;;;11.10;100.00
13015;BME280;6573;57.696;11.950;2023-04-26T00:29:53;100302.19;;;11.07;100.00
13015;BME280;6573;57.696;11.950;2023-04-26T00:32:22;100288.03;;;11.14;100.00
13015;BME280;6573;57.696;11.950;2023-04-26T00:34:50;100264.00;;;10.76;100.00
13015;BME280;6573;57.696;11.950;2023-04-26T00:37:18;100299.03;;;10.78;100.00
13015;BME280;6573;57.696;11.950;2023-04-26T00:39:47;100304.47;;;10.63;100.00
13015;BME280;6573;57.696;11.950;2023-04-26T00:42:15;100303.44;;;10.79;100.00
13015;BME280;6573;57.696;11.950;2023-04-26T00:44:46;100297.34;;;10.74;100.00
13015;BME280;6573;57.696;11.950;2023-04-26T00:47:16;100300.88;;;10.70;100.00
13015;BME280;6573;57.696;11.950;2023-04-26T00:49:44;100311.53;;;10.61;100.00
13015;BME280;6573;57.696;11.950;2023-04-26T00:52:13;100301.19;;;10.43;100.00
13015;BME280;6573;57.696;11.950;2023-04-26T00:54:41;100307.31;;;10.45;100.00
13015;BME280;6573;57.696;11.950;2023-04-26T00:57:11;100305.59;;;10.40;100.00
13015;BME280;6573;57.696;11.950;2023-04-26T00:59:39;100304.38;;;10.72;100.00
13015;BME280;6573;57.696;11.950;2023-04-26T01:02:09;100307.91;;;10.71;100.00
13015;BME280;6573;57.696;11.950;2023-04-26T01:04:38;100307.19;;;10.57;100.00
13015;BME280;6573;57.696;11.950;2023-04-26T01:07:07;100309.94;;;10.45;100.00
13015;BME280;6573;57.696;11.950;2023-04-26T01:09:36;100312.63;;;10.40;100.00
13015;BME280;6573;57.696;11.950;2023-04-26T01:12:05;100303.13;;;10.25;100.00
13015;BME280;6573;57.696;11.950;2023-04-26T01:14:34;100296.88;;;10.38;100.00
13015;BME280;6573;57.696;11.950;2023-04-26T01:17:03;100311.94;;;10.21;100.00
13015;BME280;6573;57.696;11.950;2023-04-26T01:19:34;100315.38;;;10.29;100.00
13015;BME280;6573;57.696;11.950;2023-04-26T01:22:03;100310.25;;;10.11;100.00
13015;BME280;6573;57.696;11.950;2023-04-26T01:24:34;100317.19;;;10.21;100.00
13015;BME280;6573;57.696;11.950;2023-04-26T01:27:03;100310.28;;;10.05;100.00
13015;BME280;6573;57.696;11.950;2023-04-26T01:29:31;100324.25;;;10.16;100.00
13015;BME280;6573;57.696;11.950;2023-04-26T01:32:00;100324.34;;;10.01;100.00
13015;BME280;6573;57.696;11.950;2023-04-26T01:34:28;100329.59;;;10.04;100.00
13015;BME280;6573;57.696;11.950;2023-04-26T01:36:56;100335.53;;;10.26;100.00
13015;BME280;6573;57.696;11.950;2023-04-26T01:39:25;100327.69;;;10.24;100.00
13015;BME280;6573;57.696;11.950;2023-04-26T01:41:56;100308.25;;;10.37;100.00
13015;BME280;6573;57.696;11.950;2023-04-26T01:44:24;100324.72;;;10.56;100.00
13015;BME280;6573;57.696;11.950;2023-04-26T01:46:53;100316.81;;;10.58;100.00
13015;BME280;6573;57.696;11.950;2023-04-26T01:49:21;100327.19;;;10.70;100.00
13015;BME280;6573;57.696;11.950;2023-04-26T01:51:50;100337.72;;;10.70;100.00
13015;BME280;6573;57.696;11.950;2023-04-26T01:54:19;100325.50;;;10.66;100.00
13015;BME280;6573;57.696;11.950;2023-04-26T01:56:47;100325.50;;;10.66;100.00
13015;BME280;6573;57.696;11.950;2023-04-26T01:59:17;100334.25;;;10.68;100.00
13015;BME280;6573;57.696;11.950;2023-04-26T02:01:47;100339.69;;;10.50;100.00
13015;BME280;6573;57.696;11.950;2023-04-26T02:04:16;100347.16;;;9.96;100.00
13015;BME280;6573;57.696;11.950;2023-04-26T02:06:44;100343.69;;;9.91;100.00
13015;BME280;6573;57.696;11.950;2023-04-26T02:09:12;100343.69;;;9.91;100.00
13015;BME280;6573;57.696;11.950;2023-04-26T02:11:40;100343.88;;;9.64;100.00
13015;BME280;6573;57.696;11.950;2023-04-26T02:14:08;100342.00;;;9.84;100.00
13015;BME280;6573;57.696;11.950;2023-04-26T02:16:39;100347.25;;;9.84;100.00
13015;BME280;6573;57.696;11.950;2023-04-26T02:19:08;100340.16;;;9.95;100.00
13015;BME280;6573;57.696;11.950;2023-04-26T02:21:50;100312.19;;;9.85;100.00
13015;BME280;6573;57.696;11.950;2023-04-26T02:24:18;100328.00;;;9.82;100.00
13015;BME280;6573;57.696;11.950;2023-04-26T02:26:48;100344.63;;;9.83;100.00
13015;BME280;6573;57.696;11.950;2023-04-26T02:29:16;100333.41;;;9.58;100.00
13015;BME280;6573;57.696;11.950;2023-04-26T02:32:03;100340.44;;;9.56;100.00
13015;BME280;6573;57.696;11.950;2023-04-26T02:34:32;100301.91;;;9.58;100.00
13015;BME280;6573;57.696;11.950;2023-04-26T02:37:00;100326.34;;;9.72;100.00
13015;BME280;6573;57.696;11.950;2023-04-26T02:39:28;100321.75;;;9.97;100.00
13015;BME280;6573;57.696;11.950;2023-04-26T02:41:57;100331.31;;;10.05;100.00
13015;BME280;6573;57.696;11.950;2023-04-26T02:44:28;100331.28;;;10.13;100.00
13015;BME280;6573;57.696;11.950;2023-04-26T02:46:56;100334.66;;;10.28;100.00
13015;BME280;6573;57.696;11.950;2023-04-26T02:49:26;100315.53;;;10.05;100.00
13015;BME280;6573;57.696;11.950;2023-04-26T02:51:55;100329.53;;;10.07;100.00
13015;BME280;6573;57.696;11.950;2023-04-26T02:54:23;100324.31;;;10.04;100.00
13015;BME280;6573;57.696;11.950;2023-04-26T02:56:51;100300.66;;;10.12;100.00
13015;BME280;6573;57.696;11.950;2023-04-26T02:59:21;100319.00;;;10.10;100.00
13015;BME280;6573;57.696;11.950;2023-04-26T03:01:49;100323.38;;;10.13;100.00
13015;BME280;6573;57.696;11.950;2023-04-26T03:04:17;100324.31;;;10.04;100.00
13015;BME280;6573;57.696;11.950;2023-04-26T03:06:47;100327.06;;;9.89;100.00
13015;BME280;6573;57.696;11.950;2023-04-26T03:09:15;100335.84;;;9.87;100.00
13015;BME280;6573;57.696;11.950;2023-04-26T03:11:44;100319.25;;;9.80;100.00
13015;BME280;6573;57.696;11.950;2023-04-26T03:14:15;100331.44;;;9.90;100.00
13015;BME280;6573;57.696;11.950;2023-04-26T03:16:44;100329.72;;;9.89;100.00
13015;BME280;6573;57.696;11.950;2023-04-26T03:19:12;100323.63;;;9.81;100.00
13015;BME280;6573;57.696;11.950;2023-04-26T03:21:40;100320.88;;;9.96;100.00
13015;BME280;6573;57.696;11.950;2023-04-26T03:24:10;100306.75;;;10.12;100.00
13015;BME280;6573;57.696;11.950;2023-04-26T03:26:38;100311.94;;;10.21;100.00
13015;BME280;6573;57.696;11.950;2023-04-26T03:29:07;100303.22;;;10.10;100.00
13015;BME280;6573;57.696;11.950;2023-04-26T03:31:35;100303.31;;;10.04;100.00
13015;BME280;6573;57.696;11.950;2023-04-26T03:34:03;100307.66;;;10.07;100.00
13015;BME280;6573;57.696;11.950;2023-04-26T03:36:33;100297.94;;;10.19;100.00
13015;BME280;6573;57.696;11.950;2023-04-26T03:39:02;100300.41;;;10.33;100.00
13015;BME280;6573;57.696;11.950;2023-04-26T03:41:33;100310.03;;;10.35;100.00
13015;BME280;6573;57.696;11.950;2023-04-26T03:44:03;100308.34;;;10.31;100.00
13015;BME280;6573;57.696;11.950;2023-04-26T03:46:31;100311.84;;;10.30;100.00
13015;BME280;6573;57.696;11.950;2023-04-26T03:48:59;100308.28;;;10.34;100.00
13015;BME280;6573;57.696;11.950;2023-04-26T03:51:27;100298.72;;;10.29;100.00
13015;BME280;6573;57.696;11.950;2023-04-26T03:53:57;100316.28;;;10.27;100.00
13015;BME280;6573;57.696;11.950;2023-04-26T03:56:26;100314.56;;;10.21;100.00
13015;BME280;6573;57.696;11.950;2023-04-26T03:58:56;100321.53;;;10.27;100.00
13015;BME280;6573;57.696;11.950;2023-04-26T04:01:24;100316.34;;;10.18;100.00
13015;BME280;6573;57.696;11.950;2023-04-26T04:03:53;100322.50;;;10.15;100.00
13015;BME280;6573;57.696;11.950;2023-04-26T04:06:22;100316.34;;;10.19;100.00
13015;BME280;6573;57.696;11.950;2023-04-26T04:08:50;100325.91;;;10.26;100.00
13015;BME280;6573;57.696;11.950;2023-04-26T04:11:18;100317.13;;;10.27;100.00
13015;BME280;6573;57.696;11.950;2023-04-26T04:13:47;100314.59;;;10.18;100.00
13015;BME280;6573;57.696;11.950;2023-04-26T04:16:16;100325.94;;;10.23;100.00
13015;BME280;6573;57.696;11.950;2023-04-26T04:18:45;100295.38;;;10.07;100.00
13015;BME280;6573;57.696;11.950;2023-04-26T04:21:13;100299.75;;;10.08;100.00
13015;BME280;6573;57.696;11.950;2023-04-26T04:23:41;100317.19;;;10.21;100.00
13015;BME280;6573;57.696;11.950;2023-04-26T04:26:10;100330.34;;;10.21;100.00
13015;BME280;6573;57.696;11.950;2023-04-26T04:28:38;100319.00;;;10.10;100.00
13015;BME280;6573;57.696;11.950;2023-04-26T04:31:07;100306.81;;;10.03;100.00
13015;BME280;6573;57.696;11.950;2023-04-26T04:33:37;100315.63;;;9.99;100.00
13015;BME280;6573;57.696;11.950;2023-04-26T04:36:06;100333.72;;;10.32;100.00
13015;BME280;6573;57.696;11.950;2023-04-26T04:38:35;100317.97;;;10.31;100.00
13015;BME280;6573;57.696;11.950;2023-04-26T04:41:03;100344.94;;;10.50;100.00
13015;BME280;6573;57.696;11.950;2023-04-26T04:43:31;100334.41;;;10.50;100.00
13015;BME280;6573;57.696;11.950;2023-04-26T04:46:00;100339.66;;;10.53;100.00
13015;BME280;6573;57.696;11.950;2023-04-26T04:48:28;100340.66;;;10.41;100.00
13015;BME280;6573;57.696;11.950;2023-04-26T04:50:58;100341.59;;;10.35;100.00
13015;BME280;6573;57.696;11.950;2023-04-26T04:53:26;100338.00;;;10.43;100.00
13015;BME280;6573;57.696;11.950;2023-04-26T04:55:55;100310.19;;;10.17;100.00
13015;BME280;6573;57.696;11.950;2023-04-26T04:58:23;100338.84;;;10.46;100.00
13015;BME280;6573;57.696;11.950;2023-04-26T05:00:52;100319.88;;;10.15;100.00
13015;BME280;6573;57.696;11.950;2023-04-26T05:03:21;100328.59;;;10.17;100.00
13015;BME280;6573;57.696;11.950;2023-04-26T05:05:50;100325.84;;;10.32;100.00
13015;BME280;6573;57.696;11.950;2023-04-26T05:08:19;100331.22;;;10.17;100.00
13015;BME280;6573;57.696;11.950;2023-04-26T05:10:48;100332.81;;;10.36;100.00
13015;BME280;6573;57.696;11.950;2023-04-26T05:13:16;100328.47;;;10.34;100.00
13015;BME280;6573;57.696;11.950;2023-04-26T05:15:44;100336.44;;;10.23;100.00
13015;BME280;6573;57.696;11.950;2023-04-26T05:18:12;100327.81;;;10.03;100.00
13015;BME280;6573;57.696;11.950;2023-04-26T05:20:41;100340.03;;;10.13;100.00
13015;BME280;6573;57.696;11.950;2023-04-26T05:23:09;100329.50;;;10.16;100.00
13015;BME280;6573;57.696;11.950;2023-04-26T05:25:38;100315.28;;;10.38;100.00
13015;BME280;6573;57.696;11.950;2023-04-26T05:28:07;100336.28;;;10.42;100.00
13015;BME280;6573;57.696;11.950;2023-04-26T05:30:38;100356.69;;;10.12;100.00
13015;BME280;6573;57.696;11.950;2023-04-26T05:33:06;100368.53;;;9.39;100.00
13015;BME280;6573;57.696;11.950;2023-04-26T05:35:35;100382.63;;;9.23;100.00
13015;BME280;6573;57.696;11.950;2023-04-26T05:38:03;100377.41;;;9.13;100.00
13015;BME280;6573;57.696;11.950;2023-04-26T05:40:31;100386.19;;;9.09;100.00
13015;BME280;6573;57.696;11.950;2023-04-26T05:43:01;100375.78;;;8.85;100.00
13015;BME280;6573;57.696;11.950;2023-04-26T05:45:29;100381.88;;;8.87;100.00
13015;BME280;6573;57.696;11.950;2023-04-26T05:47:57;100379.22;;;8.93;100.00
13015;BME280;6573;57.696;11.950;2023-04-26T05:50:26;100388.84;;;8.97;100.00
13015;BME280;6573;57.696;11.950;2023-04-26T05:52:54;100382.72;;;8.98;100.00
13015;BME280;6573;57.696;11.950;2023-04-26T05:55:25;100386.19;;;9.03;100.00
13015;BME280;6573;57.696;11.950;2023-04-26T05:57:53;100389.59;;;9.24;100.00
13015;BME280;6573;57.696;11.950;2023-04-26T06:00:24;100387.75;;;9.50;100.00
13015;BME280;6573;57.696;11.950;2023-04-26T06:02:52;100389.47;;;9.48;100.00
13015;BME280;6573;57.696;11.950;2023-04-26T06:05:21;100386.06;;;9.37;100.00
13015;BME280;6573;57.696;11.950;2023-04-26T06:07:50;100388.56;;;9.62;100.00
13015;BME280;6573;57.696;11.950;2023-04-26T06:10:19;100398.16;;;9.60;100.00
13015;BME280;6573;57.696;11.950;2023-04-26T06:12:47;100399.94;;;9.60;100.00
13015;BME280;6573;57.696;11.950;2023-04-26T06:15:16;100399.94;;;9.60;100.00
13015;BME280;6573;57.696;11.950;2023-04-26T06:17:45;100398.34;;;9.32;100.00
13015;BME280;6573;57.696;11.950;2023-04-26T06:20:14;100394.72;;;9.51;100.00
13015;BME280;6573;57.696;11.950;2023-04-26T06:22:42;100401.69;;;9.58;100.00
13015;BME280;6573;57.696;11.950;2023-04-26T06:25:10;100405.19;;;9.60;100.00
13015;BME280;6573;57.696;11.950;2023-04-26T06:27:38;100398.19;;;9.59;100.00
13015;BME280;6573;57.696;11.950;2023-04-26T06:30:08;100410.47;;;9.60;100.00
13015;BME280;6573;57.696;11.950;2023-04-26T06:32:38;100387.69;;;9.56;100.00
13015;BME280;6573;57.696;11.950;2023-04-26T06:35:08;100398.88;;;9.88;100.00
13015;BME280;6573;57.696;11.950;2023-04-26T06:37:36;100384.69;;;10.15;100.00
13015;BME280;6573;57.696;11.950;2023-04-26T06:40:06;100397.84;;;10.16;100.00
13015;BME280;6573;57.696;11.950;2023-04-26T06:42:37;100400.56;;;10.00;100.00
13015;BME280;6573;57.696;11.950;2023-04-26T06:45:06;100394.63;;;9.69;100.00
13015;BME280;6573;57.696;11.950;2023-04-26T06:47:34;100396.41;;;9.64;100.00
13015;BME280;6573;57.696;11.950;2023-04-26T06:50:04;100399.81;;;9.81;100.00
13015;BME280;6573;57.696;11.950;2023-04-26T06:52:33;100397.00;;;10.07;100.00
13015;BME280;6573;57.696;11.950;2023-04-26T06:55:02;100408.38;;;10.13;100.00
13015;BME280;6573;57.696;11.950;2023-04-26T06:57:30;100408.53;;;9.89;100.00
13015;BME280;6573;57.696;11.950;2023-04-26T06:59:58;100387.69;;;9.62;100.00
13015;BME280;6573;57.696;11.950;2023-04-26T07:02:27;100419.78;;;10.03;100.00
13015;BME280;6573;57.696;11.950;2023-04-26T07:04:55;100419.13;;;9.74;100.00
13015;BME280;6573;57.696;11.950;2023-04-26T07:07:24;100419.81;;;10.00;100.00
13015;BME280;6573;57.696;11.950;2023-04-26T07:09:54;100423.28;;;10.07;100.00
13015;BME280;6573;57.696;11.950;2023-04-26T07:12:23;100424.34;;;9.77;100.00
13015;BME280;6573;57.696;11.950;2023-04-26T07:14:51;100417.16;;;10.06;100.00
13015;BME280;6573;57.696;11.950;2023-04-26T07:17:19;100412.41;;;10.55;100.00
13015;BME280;6573;57.696;11.950;2023-04-26T07:19:48;100424.06;;;10.22;100.00
13015;BME280;6573;57.696;11.950;2023-04-26T07:22:16;100427.66;;;10.06;100.00
13015;BME280;6573;57.696;11.950;2023-04-26T07:24:44;100418.88;;;10.13;100.00
13015;BME280;6573;57.696;11.950;2023-04-26T07:27:14;100401.13;;;10.39;100.00
13015;BME280;6573;57.696;11.950;2023-04-26T07:29:42;100427.41;;;10.44;100.00
13015;BME280;6573;57.696;11.950;2023-04-26T07:32:10;100432.53;;;10.58;100.00
13015;BME280;6573;57.696;11.950;2023-04-26T07:34:39;100427.28;;;10.55;100.00
13015;BME280;6573;57.696;11.950;2023-04-26T07:37:07;100425.56;;;10.54;100.00
13015;BME280;6573;57.696;11.950;2023-04-26T07:39:35;100435.28;;;10.46;100.00
13015;BME280;6573;57.696;11.950;2023-04-26T07:42:04;100389.97;;;10.10;100.00
13015;BME280;6573;57.696;11.950;2023-04-26T07:44:34;100445.06;;;10.28;100.00
13015;BME280;6573;57.696;11.950;2023-04-26T07:47:02;100455.50;;;10.34;100.00
13015;BME280;6573;57.696;11.950;2023-04-26T07:49:30;100446.91;;;10.08;100.00
13015;BME280;6573;57.696;11.950;2023-04-26T07:51:59;100448.84;;;9.79;100.00
13015;BME280;6573;57.696;11.950;2023-04-26T07:54:28;100454.81;;;10.02;100.00
13015;BME280;6573;57.696;11.950;2023-04-26T07:56:56;100410.09;;;10.11;100.00
13015;BME280;6573;57.696;11.950;2023-04-26T07:59:25;100437.03;;;10.45;100.00
13015;BME280;6573;57.696;11.950;2023-04-26T08:01:54;100451.16;;;10.33;100.00
13015;BME280;6573;57.696;11.950;2023-04-26T08:04:30;100459.13;;;10.24;100.00
13015;BME280;6573;57.696;11.950;2023-04-26T08:07:00;100468.47;;;10.59;100.00
13015;BME280;6573;57.696;11.950;2023-04-26T08:09:29;100473.75;;;10.56;100.00
13015;BME280;6573;57.696;11.950;2023-04-26T08:11:57;100478.28;;;10.38;100.00
13015;BME280;6573;57.696;11.950;2023-04-26T08:14:28;100464.88;;;11.49;100.00
13015;BME280;6573;57.696;11.950;2023-04-26T08:16:58;100464.53;;;11.80;100.00
13015;BME280;6573;57.696;11.950;2023-04-26T08:19:29;100425.00;;;12.36;100.00
13015;BME280;6573;57.696;11.950;2023-04-26T08:21:59;100467.03;;;11.89;100.00
13015;BME280;6573;57.696;11.950;2023-04-26T08:24:27;100479.22;;;11.24;100.00
13015;BME280;6573;57.696;11.950;2023-04-26T08:26:55;100471.50;;;11.07;100.00
13015;BME280;6573;57.696;11.950;2023-04-26T08:29:25;100483.22;;;10.78;100.00
13015;BME280;6573;57.696;11.950;2023-04-26T08:31:54;100486.50;;;11.01;100.00
13015;BME280;6573;57.696;11.950;2023-04-26T08:34:24;100480.03;;;11.32;100.00
13015;BME280;6573;57.696;11.950;2023-04-26T08:36:55;100478.75;;;11.63;100.00
13015;BME280;6573;57.696;11.950;2023-04-26T08:39:23;100483.34;;;11.48;100.00
13015;BME280;6573;57.696;11.950;2023-04-26T08:41:53;100495.63;;;11.50;100.00
13015;BME280;6573;57.696;11.950;2023-04-26T08:44:23;100484.31;;;11.39;100.00
13015;BME280;6573;57.696;11.950;2023-04-26T08:47:05;100486.59;;;11.71;100.00
13015;BME280;6573;57.696;11.950;2023-04-26T08:49:39;100478.53;;;11.85;100.00
13015;BME280;6573;57.696;11.950;2023-04-26T08:52:09;100498.72;;;11.86;100.00
13015;BME280;6573;57.696;11.950;2023-04-26T08:54:39;100476.41;;;11.39;100.00
13015;BME280;6573;57.696;11.950;2023-04-26T08:57:07;100507.44;;;11.13;100.00
13015;BME280;6573;57.696;11.950;2023-04-26T08:59:37;100465.72;;;10.69;100.00
13015;BME280;6573;57.696;11.950;2023-04-26T09:02:06;100511.19;;;10.88;100.00
13015;BME280;6573;57.696;11.950;2023-04-26T09:04:34;100498.91;;;10.87;100.00
13015;BME280;6573;57.696;11.950;2023-04-26T09:07:06;100510.06;;;11.12;100.00
13015;BME280;6573;57.696;11.950;2023-04-26T09:09:40;100520.88;;;11.66;100.00
13015;BME280;6573;57.696;11.950;2023-04-26T09:12:08;100524.94;;;11.17;100.00
13015;BME280;6573;57.696;11.950;2023-04-26T09:14:37;100515.84;;;11.48;100.00
13015;BME280;6573;57.696;11.950;2023-04-26T09:19:49;100536.66;;;10.86;100.00
13015;BME280;6573;57.696;11.950;2023-04-26T09:22:34;100525.28;;;10.81;100.00
13015;BME280;6573;57.696;11.950;2023-04-26T09:25:04;100524.25;;;10.97;100.00
13015;BME280;6573;57.696;11.950;2023-04-26T09:27:35;100524.88;;;11.23;100.00
13015;BME280;6573;57.696;11.950;2023-04-26T09:30:09;100524.72;;;11.38;100.00
13015;BME280;6573;57.696;11.950;2023-04-26T09:32:50;100507.59;;;10.98;100.00
13015;BME280;6573;57.696;11.950;2023-04-26T09:35:28;100535.84;;;10.75;100.00
13015;BME280;6573;57.696;11.950;2023-04-26T09:37:59;100529.88;;;10.53;100.00
13015;BME280;6573;57.696;11.950;2023-04-26T09:40:37;100516.22;;;11.09;100.00
13015;BME280;6573;57.696;11.950;2023-04-26T09:43:08;100535.75;;;11.75;100.00
13015;BME280;6573;57.696;11.950;2023-04-26T09:45:49;100541.59;;;12.00;100.00
13015;BME280;6573;57.696;11.950;2023-04-26T09:48:19;100532.94;;;11.89;100.00
13015;BME280;6573;57.696;11.950;2023-04-26T09:50:49;100538.75;;;11.40;100.00
13015;BME280;6573;57.696;11.950;2023-04-26T09:53:28;100548.84;;;10.96;100.00
13015;BME280;6573;57.696;11.950;2023-04-26T09:56:05;100548.03;;;10.88;100.00
13015;BME280;6573;57.696;11.950;2023-04-26T09:58:38;100554.06;;;10.97;100.00
13015;BME280;6573;57.696;11.950;2023-04-26T10:01:08;100547.56;;;11.36;100.00
13015;BME280;6573;57.696;11.950;2023-04-26T10:03:38;100544.31;;;11.10;100.00
13015;BME280;6573;57.696;11.950;2023-04-26T10:06:06;100542.50;;;11.18;100.00
13015;BME280;6573;57.696;11.950;2023-04-26T10:08:36;100547.56;;;11.36;100.00
13015;BME280;6573;57.696;11.950;2023-04-26T10:11:05;100547.81;;;11.12;100.00
13015;BME280;6573;57.696;11.950;2023-04-26T10:13:36;100563.84;;;10.85;100.00
13015;BME280;6573;57.696;11.950;2023-04-26T10:16:08;100563.91;;;10.76;100.00
13015;BME280;6573;57.696;11.950;2023-04-26T10:18:37;100564.63;;;10.96;100.00
13015;BME280;6573;57.696;11.950;2023-04-26T10:21:12;100566.16;;;11.20;100.00
13015;BME280;6573;57.696;11.950;2023-04-26T10:23:44;100569.78;;;11.08;100.00
13015;BME280;6573;57.696;11.950;2023-04-26T10:26:49;100569.53;;;11.35;100.00
13015;BME280;6573;57.696;11.950;2023-04-26T10:29:21;100556.41;;;11.29;100.00
13015;BME280;6573;57.696;11.950;2023-04-26T10:32:06;100571.25;;;11.38;99.76
13015;BME280;6573;57.696;11.950;2023-04-26T10:34:36;100560.09;;;11.10;100.00
13015;BME280;6573;57.696;11.950;2023-04-26T10:37:12;100574.25;;;10.98;100.00
13015;BME280;6573;57.696;11.950;2023-04-26T10:39:46;100572.47;;;10.99;100.00
13015;BME280;6573;57.696;11.950;2023-04-26T10:42:24;100585.50;;;11.19;100.00
13015;BME280;6573;57.696;11.950;2023-04-26T10:44:54;100572.44;;;11.05;100.00
13015;BME280;6573;57.696;11.950;2023-04-26T10:47:30;100586.56;;;10.95;100.00
13015;BME280;6573;57.696;11.950;2023-04-26T10:50:04;100585.84;;;10.73;100.00
13015;BME280;6573;57.696;11.950;2023-04-26T10:52:33;100593.38;;;11.17;100.00
13015;BME280;6573;57.696;11.950;2023-04-26T10:55:04;100593.38;;;11.17;100.00
13015;BME280;6573;57.696;11.950;2023-04-26T10:57:49;100598.59;;;11.26;100.00
13015;BME280;6573;57.696;11.950;2023-04-26T11:00:27;100582.59;;;11.44;99.63
13015;BME280;6573;57.696;11.950;2023-04-26T11:03:03;100583.38;;;11.55;99.14
13015;BME280;6573;57.696;11.950;2023-04-26T11:05:52;100589.25;;;11.82;98.05
13015;BME280;6573;57.696;11.950;2023-04-26T11:08:25;100592.69;;;11.90;97.56
13015;BME280;6573;57.696;11.950;2023-04-26T11:11:09;100600.34;;;11.24;96.93
13015;BME280;6573;57.696;11.950;2023-04-26T11:13:38;100608.13;;;11.36;98.69
13015;BME280;6573;57.696;11.950;2023-04-26T11:16:08;100614.56;;;11.05;99.20
13015;BME280;6573;57.696;11.950;2023-04-26T11:18:38;100609.97;;;11.27;99.77
13015;BME280;6573;57.696;11.950;2023-04-26T11:21:07;100603.91;;;11.17;99.86
13015;BME280;6573;57.696;11.950;2023-04-26T11:23:35;100625.13;;;10.99;99.55
13015;BME280;6573;57.696;11.950;2023-04-26T11:26:07;100588.25;;;11.02;98.25
13015;BME280;6573;57.696;11.950;2023-04-26T11:28:37;100612.75;;;11.10;99.45
13015;BME280;6573;57.696;11.950;2023-04-26T11:31:06;100620.75;;;10.98;96.31
13015;BME280;6573;57.696;11.950;2023-04-26T11:33:34;100602.44;;;10.83;96.60
13015;BME280;6573;57.696;11.950;2023-04-26T11:36:03;100613.28;;;11.47;96.59
13015;BME280;6573;57.696;11.950;2023-04-26T11:38:31;100607.00;;;11.61;96.48
13015;BME280;6573;57.696;11.950;2023-04-26T11:41:00;100613.97;;;11.68;94.38
13015;BME280;6573;57.696;11.950;2023-04-26T11:43:33;100610.13;;;12.00;93.90
13015;BME280;6573;57.696;11.950;2023-04-26T11:46:03;100615.56;;;11.85;93.62
13015;BME280;6573;57.696;11.950;2023-04-26T11:48:33;100610.31;;;11.82;92.51
13015;BME280;6573;57.696;11.950;2023-04-26T11:51:02;100608.53;;;11.84;93.79
13015;BME280;6573;57.696;11.950;2023-04-26T11:53:34;100619.63;;;12.14;93.21
13015;BME280;6573;57.696;11.950;2023-04-26T11:56:05;100624.28;;;11.93;93.03
13015;BME280;6573;57.696;11.950;2023-04-26T11:58:45;100610.91;;;12.06;93.54
13015;BME280;6573;57.696;11.950;2023-04-26T12:01:20;100625.97;;;11.97;93.62
13015;BME280;6573;57.696;11.950;2023-04-26T12:03:50;100618.53;;;12.29;93.46
13015;BME280;6573;57.696;11.950;2023-04-26T12:06:24;100627.22;;;12.40;92.04
13015;BME280;6573;57.696;11.950;2023-04-26T12:08:52;100630.41;;;12.60;91.20
13015;BME280;6573;57.696;11.950;2023-04-26T12:11:21;100625.38;;;12.45;91.29
13015;BME280;6573;57.696;11.950;2023-04-26T12:13:50;100602.56;;;12.41;91.24
13015;BME280;6573;57.696;11.950;2023-04-26T12:16:21;100648.31;;;12.40;89.93
13015;BME280;6573;57.696;11.950;2023-04-26T12:18:53;100633.41;;;12.38;91.11
13015;BME280;6573;57.696;11.950;2023-04-26T12:21:23;100635.88;;;12.48;91.12
13015;BME280;6573;57.696;11.950;2023-04-26T12:23:56;100647.09;;;12.64;91.87
13015;BME280;6573;57.696;11.950;2023-04-26T12:26:40;100649.13;;;13.05;89.31
13015;BME280;6573;57.696;11.950;2023-04-26T12:29:11;100661.63;;;12.93;85.32
13015;BME280;6573;57.696;11.950;2023-04-26T12:31:39;100654.84;;;12.77;86.11
13015;BME280;6573;57.696;11.950;2023-04-26T12:34:08;100642.47;;;12.79;86.84
13015;BME280;6573;57.696;11.950;2023-04-26T12:36:36;100653.47;;;12.46;85.19
13015;BME280;6573;57.696;11.950;2023-04-26T12:39:06;100661.06;;;12.02;86.83
13015;BME280;6573;57.696;11.950;2023-04-26T12:41:34;100650.13;;;12.35;86.07
13015;BME280;6573;57.696;11.950;2023-04-26T12:44:03;100666.31;;;12.05;85.04
13015;BME280;6573;57.696;11.950;2023-04-26T12:46:35;100673.25;;;12.12;84.15
13015;BME280;6573;57.696;11.950;2023-04-26T12:49:03;100670.75;;;12.03;84.24
13015;BME280;6573;57.696;11.950;2023-04-26T12:51:31;100660.88;;;12.20;85.11
13015;BME280;6573;57.696;11.950;2023-04-26T12:54:00;100667.22;;;12.72;84.61
13015;BME280;6573;57.696;11.950;2023-04-26T12:56:29;100662.03;;;12.63;85.26
13015;BME280;6573;57.696;11.950;2023-04-26T12:58:57;100680.69;;;12.51;85.81